Time;durP1;ratioP1;P1;durP2;ratioP2;P2;SDS_P1;SDS_P2;PMS_P1;PMS_P2;Temp;Humidity;BMP_temperature;BMP_pressure;BME280_temperature;BME280_humidity;BME280_pressure;Samples;Min_cycle;Max_cycle;Signal;HPM_P1;HPM_P2
2022/01/11 00:05:17;;;;;;;196.73;77.40;;;-5.40;99.90;;;;;;10476764;28;20411;-81
2022/01/11 00:10:48;;;;;;;177.10;72.77;;;-5.40;99.90;;;;;;10462768;28;20249;-81
2022/01/11 00:16:15;;;;;;;163.20;64.57;;;-5.30;99.90;;;;;;10476473;28;20250;-80
2022/01/11 00:21:44;;;;;;;169.17;65.60;;;-5.30;99.90;;;;;;10476365;28;20596;-81
2022/01/11 00:27:08;;;;;;;158.83;63.43;;;-5.30;99.90;;;;;;10462699;28;20382;-82
2022/01/11 00:32:39;;;;;;;132.50;55.27;;;-5.30;99.90;;;;;;10420970;28;20202;-80
2022/01/11 00:38:01;;;;;;;137.40;54.53;;;-5.20;99.90;;;;;;10434843;28;20228;-82
2022/01/11 00:43:25;;;;;;;122.23;54.03;;;-5.20;99.90;;;;;;10420600;28;20495;-82
2022/01/11 00:48:47;;;;;;;110.07;49.07;;;-5.30;99.90;;;;;;10420879;28;20202;-82
2022/01/11 00:54:09;;;;;;;109.27;49.47;;;-5.30;99.90;;;;;;10459712;28;20227;-80
2022/01/11 00:59:31;;;;;;;108.00;49.47;;;-5.30;99.90;;;;;;10461975;28;20233;-81
2022/01/11 01:04:53;;;;;;;104.73;48.50;;;-5.40;99.90;;;;;;10468919;28;20211;-81
2022/01/11 01:16:11;;;;;;;118.07;48.77;;;-5.40;99.90;;;;;;10465404;28;20249;-81
2022/01/11 01:21:41;;;;;;;121.37;52.43;;;-5.40;99.90;;;;;;10468812;28;20420;-81
2022/01/11 01:27:04;;;;;;;116.20;48.80;;;-5.30;99.90;;;;;;10468521;28;20397;-82
2022/01/11 01:32:28;;;;;;;126.97;52.03;;;-5.10;99.90;;;;;;10481945;28;20262;-81
2022/01/11 01:37:50;;;;;;;143.80;57.57;;;-4.90;99.90;;;;;;10426898;28;20604;-81
2022/01/11 01:43:14;;;;;;;153.97;61.87;;;-4.70;99.90;;;;;;10426968;28;20502;-81
2022/01/11 01:48:37;;;;;;;152.17;64.90;;;-4.50;99.90;;;;;;10463351;28;20203;-82
2022/01/11 01:53:59;;;;;;;156.13;68.07;;;-4.40;99.90;;;;;;10453653;28;20273;-81
2022/01/11 01:59:21;;;;;;;163.73;67.30;;;-4.40;99.90;;;;;;10481291;28;20216;-81
2022/01/11 02:04:43;;;;;;;152.00;64.30;;;-4.30;99.90;;;;;;10467154;28;20200;-81
2022/01/11 02:10:07;;;;;;;159.97;63.70;;;-4.10;99.90;;;;;;10481021;28;20271;-82
2022/01/11 02:15:30;;;;;;;160.80;67.30;;;-3.90;99.90;;;;;;10467123;28;20289;-80
2022/01/11 02:20:56;;;;;;;157.87;67.47;;;-3.90;99.90;;;;;;10471600;28;20207;-81
2022/01/11 02:26:23;;;;;;;157.40;68.50;;;-3.70;99.90;;;;;;10467063;28;20228;-80
2022/01/11 02:31:45;;;;;;;121.83;53.10;;;-3.50;99.90;;;;;;10479681;28;20223;-81
2022/01/11 02:37:08;;;;;;;139.67;61.53;;;-3.20;99.90;;;;;;10465715;28;20230;-82
2022/01/11 02:42:40;;;;;;;134.63;58.60;;;-3.30;99.90;;;;;;10467117;28;20391;-82
2022/01/11 02:48:03;;;;;;;124.93;57.30;;;-3.30;99.90;;;;;;10479464;28;20197;-82
2022/01/11 02:53:26;;;;;;;123.27;54.50;;;-3.20;99.90;;;;;;10465130;28;20224;-82
2022/01/11 02:58:50;;;;;;;116.63;51.43;;;-3.10;99.90;;;;;;10478950;28;20225;-80
2022/01/11 03:04:12;;;;;;;119.33;52.83;;;-2.90;99.90;;;;;;10464835;28;20219;-80
2022/01/11 03:09:50;;;;;;;122.33;52.60;;;-2.80;99.90;;;;;;10450906;28;20278;-82
2022/01/11 03:15:13;;;;;;;108.83;50.07;;;-2.80;99.90;;;;;;10463839;28;20263;-81
2022/01/11 03:20:43;;;;;;;111.23;49.33;;;-2.70;99.90;;;;;;10450971;28;20197;-81
2022/01/11 03:26:06;;;;;;;95.17;44.40;;;-2.60;99.90;;;;;;10463376;28;20204;-81
2022/01/11 03:31:30;;;;;;;90.87;40.03;;;-2.50;99.90;;;;;;10450072;28;20431;-83
2022/01/11 03:36:53;;;;;;;67.47;31.67;;;-2.40;99.90;;;;;;10477696;28;20342;-81
2022/01/11 03:42:16;;;;;;;72.93;30.93;;;-2.20;99.90;;;;;;10449631;28;20208;-81
2022/01/11 03:47:38;;;;;;;66.53;28.77;;;-2.20;99.90;;;;;;10462908;28;20199;-81
2022/01/11 03:53:14;;;;;;;63.63;27.30;;;-2.10;99.90;;;;;;10462947;28;20231;-80
2022/01/11 03:58:43;;;;;;;50.07;25.23;;;-2.20;99.90;;;;;;10477062;28;20288;-81
2022/01/11 04:04:06;;;;;;;51.43;25.90;;;-2.30;99.90;;;;;;10449000;28;20420;-80
2022/01/11 04:09:30;;;;;;;53.20;26.77;;;-2.50;99.90;;;;;;10449229;28;20236;-80
2022/01/11 04:14:52;;;;;;;102.97;38.97;;;-2.70;99.90;;;;;;10462420;28;20217;-81
2022/01/11 04:20:16;;;;;;;108.07;39.80;;;-2.90;99.90;;;;;;10449165;28;20223;-81
2022/01/11 04:25:39;;;;;;;87.20;32.07;;;-2.90;99.90;;;;;;10421124;28;20195;-83
2022/01/11 04:31:01;;;;;;;85.10;31.83;;;-2.90;99.90;;;;;;10433184;28;20204;-81
2022/01/11 04:36:26;;;;;;;132.83;37.87;;;-3.00;99.90;;;;;;10464367;28;20446;-81
2022/01/11 04:41:49;;;;;;;156.00;43.23;;;-3.00;99.90;;;;;;10470431;28;20251;-81
2022/01/11 04:47:13;;;;;;;139.67;41.47;;;-3.00;99.90;;;;;;10485315;28;20204;-81
2022/01/11 04:52:36;;;;;;;92.97;39.97;;;-3.00;99.90;;;;;;10469435;28;20272;-79
2022/01/11 04:57:59;;;;;;;83.67;39.80;;;-3.10;99.90;;;;;;10471059;28;20233;-79
2022/01/11 05:03:22;;;;;;;76.77;38.57;;;-3.30;99.90;;;;;;10470656;28;20197;-81
2022/01/11 05:08:49;;;;;;;74.07;38.50;;;-3.50;99.90;;;;;;10456110;28;20197;-81
2022/01/11 05:14:11;;;;;;;77.37;37.77;;;-3.60;99.90;;;;;;10468743;28;20225;-82
2022/01/11 05:19:41;;;;;;;89.13;39.77;;;-3.80;99.90;;;;;;10470255;28;20206;-81
2022/01/11 05:25:05;;;;;;;85.97;40.13;;;-3.80;99.90;;;;;;10454662;28;20283;-81
2022/01/11 05:30:29;;;;;;;86.73;42.37;;;-3.80;99.90;;;;;;10482577;28;20443;-81
2022/01/11 05:35:52;;;;;;;106.17;45.23;;;-3.80;99.90;;;;;;10468310;28;20223;-79
2022/01/11 05:41:15;;;;;;;134.03;51.90;;;-3.80;99.90;;;;;;10467841;28;20192;-79
2022/01/11 05:46:37;;;;;;;139.73;54.33;;;-3.80;99.90;;;;;;10467510;28;20223;-78
2022/01/11 05:52:00;;;;;;;136.13;53.93;;;-3.80;99.90;;;;;;10466843;28;20195;-78
2022/01/11 05:57:22;;;;;;;135.23;54.30;;;-3.80;99.90;;;;;;10467452;28;20304;-79
2022/01/11 06:02:47;;;;;;;165.00;58.67;;;-3.80;99.90;;;;;;10472000;28;20498;-81
2022/01/11 06:08:22;;;;;;;196.13;67.20;;;-3.90;99.90;;;;;;10466816;28;20499;-83
2022/01/11 06:13:45;;;;;;;199.07;66.77;;;-4.00;99.90;;;;;;10453042;28;20202;-78
2022/01/11 06:19:07;;;;;;;154.27;58.37;;;-4.10;99.90;;;;;;10452594;28;20298;-79
2022/01/11 06:24:43;;;;;;;144.97;60.53;;;-4.10;99.90;;;;;;10465850;28;20514;-80
2022/01/11 06:30:07;;;;;;;177.23;70.70;;;-4.00;99.90;;;;;;10465859;28;20418;-80
2022/01/11 06:35:30;;;;;;;172.50;68.13;;;-4.10;99.90;;;;;;10465206;28;20222;-78
2022/01/11 06:40:52;;;;;;;142.73;60.00;;;-4.00;99.90;;;;;;10465510;28;20227;-79
2022/01/11 06:46:15;;;;;;;169.63;70.67;;;-3.90;99.90;;;;;;10465181;28;20276;-81
2022/01/11 06:51:39;;;;;;;252.07;108.33;;;-3.90;99.90;;;;;;10479059;28;20228;-83
2022/01/11 06:57:01;;;;;;;470.37;201.97;;;-3.70;99.90;;;;;;10464653;28;20275;-81
2022/01/11 07:02:24;;;;;;;316.50;148.07;;;-3.50;99.90;;;;;;10464050;28;20196;-81
2022/01/11 07:08:06;;;;;;;143.97;72.67;;;-3.30;99.90;;;;;;10478921;28;20219;-82
2022/01/11 07:13:28;;;;;;;95.47;53.23;;;-3.10;99.90;;;;;;10450538;28;20492;-81
2022/01/11 07:19:24;;;;;;;98.37;48.47;;;-2.90;99.90;;;;;;10367472;28;20284;-82
2022/01/11 07:24:49;;;;;;;79.87;42.57;;;-2.80;99.90;;;;;;10379426;28;20294;-81
2022/01/11 07:30:12;;;;;;;65.10;37.30;;;-2.80;99.90;;;;;;10362879;28;20209;-79
2022/01/11 07:35:41;;;;;;;78.93;42.10;;;-2.70;99.90;;;;;;10362344;28;20234;-81
2022/01/11 07:41:05;;;;;;;74.23;41.90;;;-2.60;99.90;;;;;;10349486;28;20219;-81
2022/01/11 07:46:47;;;;;;;68.60;38.47;;;-2.60;99.90;;;;;;10221843;28;20211;-81
2022/01/11 07:52:18;;;;;;;98.47;52.63;;;-2.50;99.90;;;;;;10295100;28;20270;-82
2022/01/11 07:57:42;;;;;;;176.23;90.03;;;-2.40;99.90;;;;;;10324858;28;20245;-82
2022/01/11 08:03:04;;;;;;;173.27;84.33;;;-2.30;99.90;;;;;;10324671;28;20212;-81
2022/01/11 08:08:46;;;;;;;142.77;70.00;;;-2.20;99.90;;;;;;10334934;28;20210;-81
2022/01/11 08:14:08;;;;;;;132.30;60.20;;;-2.00;99.90;;;;;;10332572;28;20265;-82
2022/01/11 08:19:33;;;;;;;128.53;56.60;;;-1.90;99.90;;;;;;10242935;28;20244;-83
2022/01/11 08:24:56;;;;;;;123.27;59.13;;;-1.80;99.90;;;;;;10360857;28;20206;-78
2022/01/11 08:30:21;;;;;;;125.37;60.37;;;-1.70;99.90;;;;;;10382475;28;20192;-80
2022/01/11 08:35:47;;;;;;;132.80;58.97;;;-1.40;99.90;;;;;;10395625;28;20239;-78
2022/01/11 08:41:11;;;;;;;108.93;52.10;;;-1.20;99.90;;;;;;10367036;28;20201;-79
2022/01/11 08:46:35;;;;;;;96.83;45.87;;;-0.80;99.90;;;;;;10366203;28;20242;-80
2022/01/11 08:52:06;;;;;;;90.07;44.00;;;0.10;99.90;;;;;;10353281;28;20210;-79
2022/01/11 08:57:31;;;;;;;101.83;47.37;;;1.10;99.90;;;;;;10377690;28;20522;-80
2022/01/11 09:02:54;;;;;;;104.00;45.50;;;1.20;99.90;;;;;;10354592;28;20212;-82
2022/01/11 09:08:20;;;;;;;100.83;45.77;;;0.80;99.90;;;;;;10360502;28;20243;-80
2022/01/11 09:13:45;;;;;;;144.80;57.10;;;0.40;99.90;;;;;;10375177;28;20198;-78
2022/01/11 09:19:08;;;;;;;151.70;64.20;;;0.20;99.90;;;;;;10371055;28;20233;-82
2022/01/11 09:24:30;;;;;;;147.53;62.43;;;0.00;99.90;;;;;;10341697;28;20202;-84
2022/01/11 09:29:56;;;;;;;158.77;65.10;;;-0.10;99.90;;;;;;10364616;28;20224;-83
2022/01/11 09:35:21;;;;;;;135.07;59.13;;;0.10;99.90;;;;;;10396364;28;20208;-81
2022/01/11 09:40:53;;;;;;;123.33;51.37;;;0.30;99.90;;;;;;10381193;28;20208;-82
2022/01/11 09:46:18;;;;;;;111.27;46.60;;;0.50;99.90;;;;;;10359750;28;20228;-79
2022/01/11 09:51:41;;;;;;;98.97;43.17;;;0.70;99.90;;;;;;10370789;28;20417;-77
2022/01/11 09:57:03;;;;;;;80.90;37.43;;;0.80;99.90;;;;;;10379507;28;20260;-78
2022/01/11 10:02:27;;;;;;;79.83;36.97;;;1.00;99.90;;;;;;10356483;28;20201;-82
2022/01/11 10:08:01;;;;;;;95.47;41.57;;;1.00;99.90;;;;;;10370347;28;20252;-78
2022/01/11 10:13:38;;;;;;;98.20;43.97;;;1.10;99.90;;;;;;10353777;28;20205;-84
2022/01/11 10:19:20;;;;;;;106.33;51.30;;;1.10;99.90;;;;;;10379752;28;20221;-80
2022/01/11 10:24:45;;;;;;;139.03;66.93;;;1.10;99.90;;;;;;10347329;28;20202;-79
2022/01/11 10:30:20;;;;;;;143.03;68.57;;;1.00;99.90;;;;;;10377974;28;20216;-79
2022/01/11 10:35:51;;;;;;;102.00;51.83;;;1.00;99.90;;;;;;10391842;28;20258;-85
2022/01/11 10:41:45;;;;;;;125.23;58.77;;;1.10;99.90;;;;;;10381267;28;20549;-79
2022/01/11 10:47:22;;;;;;;121.73;55.93;;;1.00;99.90;;;;;;10367722;28;20218;-79
2022/01/11 10:52:46;;;;;;;123.27;62.77;;;1.10;99.90;;;;;;10338803;28;20246;-82
2022/01/11 10:58:14;;;;;;;99.27;51.73;;;1.20;99.90;;;;;;10359265;28;20647;-81
2022/01/11 11:03:39;;;;;;;115.60;52.80;;;1.20;99.90;;;;;;10390635;28;20221;-79
2022/01/11 11:09:17;;;;;;;135.33;61.57;;;1.10;99.90;;;;;;10378822;28;20197;-83
2022/01/11 11:14:55;;;;;;;113.37;55.97;;;1.10;99.90;;;;;;10392811;28;20227;-84
2022/01/11 11:20:24;;;;;;;113.83;52.17;;;1.10;99.90;;;;;;10374235;28;20272;-81
2022/01/11 11:25:46;;;;;;;107.37;49.47;;;1.10;99.90;;;;;;10351013;28;20369;-77
2022/01/11 11:31:08;;;;;;;80.70;40.20;;;1.10;99.90;;;;;;10384909;28;20221;-79
2022/01/11 11:36:31;;;;;;;75.10;38.67;;;1.00;99.90;;;;;;10390710;28;20239;-80
2022/01/11 11:41:55;;;;;;;79.03;39.50;;;1.00;99.90;;;;;;10389493;28;20192;-78
2022/01/11 11:47:30;;;;;;;67.30;35.57;;;1.00;99.90;;;;;;10390143;28;20209;-85
2022/01/11 11:52:52;;;;;;;71.20;37.10;;;1.10;99.90;;;;;;10375761;28;20240;-81
2022/01/11 11:58:22;;;;;;;67.83;35.47;;;1.20;99.90;;;;;;10389068;28;20249;-79
2022/01/11 12:03:44;;;;;;;72.20;35.53;;;1.20;99.90;;;;;;10388800;28;20208;-80
2022/01/11 12:09:16;;;;;;;76.93;36.47;;;1.30;99.90;;;;;;10386169;28;20200;-79
2022/01/11 12:14:39;;;;;;;88.50;40.57;;;1.30;99.90;;;;;;10388820;28;20193;-78
2022/01/11 12:20:02;;;;;;;150.43;65.77;;;1.30;99.90;;;;;;10349630;28;20241;-86
2022/01/11 12:25:29;;;;;;;147.17;69.43;;;1.30;99.90;;;;;;10335896;28;20209;-84
2022/01/11 12:31:11;;;;;;;184.20;94.63;;;1.40;99.90;;;;;;10368503;28;20193;-79
2022/01/11 12:37:03;;;;;;;156.37;77.57;;;1.50;99.90;;;;;;10375947;28;20308;-81
2022/01/11 12:42:27;;;;;;;99.33;54.40;;;1.60;99.90;;;;;;10374990;28;20197;-80
2022/01/11 12:47:49;;;;;;;97.60;55.80;;;1.60;99.90;;;;;;10374333;28;20198;-77
2022/01/11 12:53:11;;;;;;;85.73;50.00;;;1.60;99.90;;;;;;10389458;28;20231;-78
2022/01/11 12:58:34;;;;;;;66.67;39.37;;;1.60;99.90;;;;;;10393764;28;20547;-78
2022/01/11 13:03:57;;;;;;;62.87;35.73;;;1.50;99.90;;;;;;10395431;28;20396;-81
2022/01/11 13:09:22;;;;;;;69.90;37.70;;;1.50;99.90;;;;;;10381686;28;20276;-80
2022/01/11 13:14:56;;;;;;;66.93;37.77;;;1.50;99.90;;;;;;10396293;28;20205;-78
2022/01/11 13:20:19;;;;;;;69.00;36.60;;;1.50;99.90;;;;;;10393168;28;20210;-77
2022/01/11 13:25:49;;;;;;;67.97;35.00;;;1.50;99.90;;;;;;10354371;28;20288;-79
2022/01/11 13:31:30;;;;;;;59.03;31.27;;;1.50;99.90;;;;;;10392371;28;20381;-79
2022/01/11 13:36:56;;;;;;;57.93;34.20;;;1.40;99.90;;;;;;10394390;28;20236;-83
2022/01/11 13:42:19;;;;;;;67.53;37.50;;;1.40;99.90;;;;;;10394107;28;20495;-83
2022/01/11 13:47:41;;;;;;;63.50;36.20;;;1.30;99.90;;;;;;10356505;28;20584;-79
2022/01/11 13:53:03;;;;;;;72.67;38.30;;;1.20;99.90;;;;;;10356310;28;20239;-79
2022/01/11 13:58:25;;;;;;;67.93;37.83;;;1.20;99.90;;;;;;10369524;28;20233;-79
2022/01/11 14:03:48;;;;;;;74.93;39.60;;;1.10;99.90;;;;;;10379958;28;20193;-80
2022/01/11 14:09:23;;;;;;;71.43;38.57;;;1.20;99.90;;;;;;10394488;28;20228;-89
2022/01/11 14:14:52;;;;;;;71.40;37.20;;;1.20;99.90;;;;;;10345054;28;20528;-80
2022/01/11 14:20:23;;;;;;;65.80;36.17;;;1.10;99.90;;;;;;10359370;28;20234;-90
2022/01/11 14:25:50;;;;;;;88.47;43.37;;;1.00;99.90;;;;;;10383124;28;20209;-81
2022/01/11 14:31:16;;;;;;;129.07;57.83;;;1.00;99.90;;;;;;10392511;28;20193;-78
2022/01/11 14:36:38;;;;;;;126.67;59.53;;;1.00;99.90;;;;;;10378707;28;20225;-82
2022/01/11 14:42:02;;;;;;;97.13;48.37;;;1.00;99.90;;;;;;10379263;28;20523;-80
2022/01/11 14:47:24;;;;;;;87.97;45.47;;;0.90;99.90;;;;;;10392372;28;20196;-80
2022/01/11 14:52:52;;;;;;;85.93;45.47;;;0.80;99.90;;;;;;10393619;28;20252;-83
2022/01/11 14:58:17;;;;;;;77.10;44.17;;;0.80;99.90;;;;;;10379590;28;20655;-85
2022/01/11 15:03:44;;;;;;;73.07;40.23;;;0.80;99.90;;;;;;10348793;28;20397;-78
2022/01/11 15:09:14;;;;;;;63.73;36.03;;;0.80;99.90;;;;;;10336877;28;20209;-78
2022/01/11 15:14:39;;;;;;;60.83;35.10;;;0.70;99.90;;;;;;10361239;28;20452;-80
2022/01/11 15:20:01;;;;;;;68.27;34.70;;;0.60;99.90;;;;;;10390034;28;20260;-80
2022/01/11 15:25:23;;;;;;;65.77;36.03;;;0.60;99.90;;;;;;10378794;28;20217;-77
2022/01/11 15:30:50;;;;;;;81.23;43.53;;;0.60;99.90;;;;;;10364838;28;20223;-82
2022/01/11 15:36:17;;;;;;;75.43;41.57;;;0.50;99.90;;;;;;10392119;28;20454;-78
2022/01/11 15:41:40;;;;;;;77.43;41.30;;;0.50;99.90;;;;;;10377248;28;20291;-79
2022/01/11 15:47:02;;;;;;;76.00;41.83;;;0.50;99.90;;;;;;10375866;28;20193;-84
2022/01/11 15:52:24;;;;;;;92.17;48.20;;;0.50;99.90;;;;;;10376728;28;20201;-78
2022/01/11 15:57:46;;;;;;;133.07;64.93;;;0.50;99.90;;;;;;10391646;28;20225;-79
2022/01/11 16:03:08;;;;;;;187.23;86.83;;;0.50;99.90;;;;;;10377162;28;20259;-78
2022/01/11 16:08:31;;;;;;;229.53;108.17;;;0.50;99.90;;;;;;10390716;28;20197;-75
2022/01/11 16:13:53;;;;;;;246.00;111.17;;;0.50;99.90;;;;;;10380595;28;20201;-79
2022/01/11 16:19:24;;;;;;;180.43;83.20;;;0.50;99.90;;;;;;10392878;28;20237;-77
2022/01/11 16:24:46;;;;;;;126.83;63.67;;;0.50;99.90;;;;;;10388900;28;20488;-80
2022/01/11 16:30:33;;;;;;;103.27;50.47;;;0.40;99.90;;;;;;10394625;28;20200;-81
2022/01/11 16:35:56;;;;;;;73.37;40.10;;;0.40;99.90;;;;;;10371148;28;20499;-80
2022/01/11 16:46:40;;;;;;;53.77;29.83;;;0.30;99.90;;;;;;10400386;28;20269;-79
2022/01/11 16:52:03;;;;;;;51.73;31.20;;;0.10;99.90;;;;;;10387842;28;20275;-80
2022/01/11 16:57:24;;;;;;;50.97;29.50;;;-0.10;99.90;;;;;;10401562;28;20400;-81
2022/01/11 17:02:47;;;;;;;49.90;28.70;;;-0.40;99.90;;;;;;10402330;28;20195;-81
2022/01/11 17:08:10;;;;;;;51.33;28.10;;;-0.60;99.90;;;;;;10347925;28;20368;-80
2022/01/11 17:13:32;;;;;;;58.00;30.23;;;-0.80;99.90;;;;;;10376428;28;20217;-81
2022/01/11 17:18:54;;;;;;;119.30;50.27;;;-0.90;99.90;;;;;;10376383;28;20236;-80
2022/01/11 17:24:18;;;;;;;186.10;74.63;;;-1.00;99.90;;;;;;10379454;28;20253;-78
2022/01/11 17:29:40;;;;;;;157.33;64.83;;;-1.10;99.90;;;;;;10360247;28;20492;-80
2022/01/11 17:35:07;;;;;;;97.23;44.30;;;-1.20;99.90;;;;;;10362511;28;20377;-80
2022/01/11 17:40:29;;;;;;;96.47;45.00;;;-1.40;99.90;;;;;;10386188;28;20242;-80
2022/01/11 17:45:51;;;;;;;110.00;49.13;;;-1.50;99.90;;;;;;10371478;28;20192;-79
2022/01/11 17:51:13;;;;;;;163.77;67.10;;;-1.60;99.90;;;;;;10399698;28;20385;-80
2022/01/11 17:56:36;;;;;;;185.73;72.93;;;-1.60;99.90;;;;;;10384784;28;20239;-80
2022/01/11 18:02:00;;;;;;;233.93;85.17;;;-1.60;99.90;;;;;;10399046;28;20222;-81
2022/01/11 18:07:22;;;;;;;211.23;74.97;;;-1.60;99.90;;;;;;10398926;28;20206;-81
2022/01/11 18:12:44;;;;;;;183.10;71.93;;;-1.70;99.90;;;;;;10385123;28;20242;-80
2022/01/11 18:18:06;;;;;;;167.73;72.37;;;-1.70;99.90;;;;;;10385052;28;20233;-80
2022/01/11 18:23:29;;;;;;;163.77;74.30;;;-1.80;99.90;;;;;;10385903;28;20199;-80
2022/01/11 18:28:51;;;;;;;205.23;86.57;;;-1.90;99.90;;;;;;10367352;28;20197;-80
2022/01/11 18:34:13;;;;;;;221.97;98.53;;;-2.10;99.90;;;;;;10398926;28;20193;-80
2022/01/11 18:39:37;;;;;;;220.40;100.67;;;-2.20;99.90;;;;;;10383525;28;20302;-80
2022/01/11 18:44:59;;;;;;;214.90;95.97;;;-2.40;99.90;;;;;;10397270;28;20219;-80
2022/01/11 18:50:22;;;;;;;221.73;98.83;;;-2.40;99.90;;;;;;10383570;28;20559;-80
2022/01/11 18:55:45;;;;;;;243.57;107.60;;;-2.50;99.90;;;;;;10381978;28;20231;-80
2022/01/11 19:01:06;;;;;;;256.97;105.97;;;-2.50;99.90;;;;;;10357325;28;20227;-80
2022/01/11 19:06:33;;;;;;;256.17;110.50;;;-2.60;99.90;;;;;;10395250;28;20269;-80
2022/01/11 19:11:59;;;;;;;290.80;119.20;;;-2.80;99.90;;;;;;10382633;28;20262;-80
2022/01/11 19:17:24;;;;;;;297.03;119.87;;;-2.80;99.90;;;;;;10395968;28;20217;-80
2022/01/11 19:22:47;;;;;;;337.57;132.37;;;-2.90;99.90;;;;;;10351164;28;20401;-80
2022/01/11 19:28:09;;;;;;;317.10;132.80;;;-2.90;99.90;;;;;;10355066;28;20195;-80
2022/01/11 19:33:31;;;;;;;339.67;143.13;;;-2.80;99.90;;;;;;10353282;28;20245;-80
2022/01/11 19:38:53;;;;;;;362.67;149.97;;;-3.00;99.90;;;;;;10381753;28;20277;-80
2022/01/11 19:44:17;;;;;;;366.03;149.23;;;-3.10;99.90;;;;;;10381464;28;20274;-80
2022/01/11 19:49:39;;;;;;;358.27;148.00;;;-3.20;99.90;;;;;;10340939;28;20211;-79
2022/01/11 19:55:03;;;;;;;328.07;139.23;;;-3.30;99.90;;;;;;10340645;28;20232;-79
2022/01/11 20:00:25;;;;;;;313.43;125.57;;;-3.20;99.90;;;;;;10354428;28;20230;-79
2022/01/11 20:05:50;;;;;;;293.33;113.77;;;-3.30;99.90;;;;;;10340448;28;20246;-78
2022/01/11 20:11:13;;;;;;;274.20;110.67;;;-3.40;99.90;;;;;;10380107;28;20492;-79
2022/01/11 20:16:35;;;;;;;290.50;117.33;;;-3.50;99.90;;;;;;10397366;28;20524;-80
2022/01/11 20:27:34;;;;;;;457.07;175.03;;;-3.70;99.90;;;;;;10410770;28;20552;-79
2022/01/11 20:32:56;;;;;;;476.50;180.43;;;-3.80;99.90;;;;;;10380740;28;20278;-79
2022/01/11 20:38:18;;;;;;;468.80;188.90;;;-3.80;99.90;;;;;;10380020;28;20229;-79
2022/01/11 20:43:41;;;;;;;408.07;169.93;;;-3.70;99.90;;;;;;10394500;28;20210;-79
2022/01/11 20:49:03;;;;;;;320.13;135.50;;;-3.70;99.90;;;;;;10355160;28;20194;-80
2022/01/11 20:54:24;;;;;;;309.87;130.67;;;-3.80;99.90;;;;;;10339460;28;20245;-79
2022/01/11 20:59:48;;;;;;;290.43;124.50;;;-3.90;99.90;;;;;;10339581;28;20224;-79
2022/01/11 21:05:13;;;;;;;283.80;118.67;;;-4.00;99.90;;;;;;10354086;28;20267;-80
2022/01/11 21:10:36;;;;;;;288.03;117.63;;;-4.00;99.90;;;;;;10377131;28;20383;-79
2022/01/11 21:16:29;;;;;;;265.10;112.93;;;-4.20;99.90;;;;;;10393530;28;20272;-79
2022/01/11 21:21:54;;;;;;;267.47;115.70;;;-4.50;99.90;;;;;;10400012;28;20528;-79
2022/01/11 21:27:16;;;;;;;296.33;115.97;;;-4.50;99.90;;;;;;10386551;28;20211;-79
2022/01/11 21:32:39;;;;;;;294.50;118.27;;;-4.60;99.90;;;;;;10386517;28;20197;-79
2022/01/11 21:38:06;;;;;;;279.17;116.90;;;-4.60;99.90;;;;;;10386151;28;20307;-79
2022/01/11 21:43:28;;;;;;;294.93;115.03;;;-4.70;99.90;;;;;;10399836;28;20201;-79
2022/01/11 21:48:50;;;;;;;279.17;116.73;;;-4.60;99.90;;;;;;10348429;28;20717;-79
2022/01/11 21:54:13;;;;;;;281.00;116.90;;;-4.60;99.90;;;;;;10331508;28;20237;-79
2022/01/11 21:59:35;;;;;;;276.07;113.17;;;-4.70;99.90;;;;;;10345141;28;20257;-79
2022/01/11 22:04:57;;;;;;;278.13;115.50;;;-4.70;99.90;;;;;;10359307;28;20263;-79
2022/01/11 22:10:24;;;;;;;269.77;116.87;;;-4.80;99.90;;;;;;10354008;28;20383;-79
2022/01/11 22:16:04;;;;;;;310.40;122.60;;;-4.80;99.90;;;;;;10385077;28;20204;-81
2022/01/11 22:21:25;;;;;;;340.60;135.17;;;-5.00;99.90;;;;;;10384373;28;20229;-79
2022/01/11 22:26:48;;;;;;;292.83;127.80;;;-5.00;99.90;;;;;;10398961;28;20201;-79
2022/01/11 22:32:10;;;;;;;263.03;110.63;;;-5.00;99.90;;;;;;10370307;28;20208;-78
2022/01/11 22:37:33;;;;;;;238.63;101.40;;;-5.10;99.90;;;;;;10397606;28;20233;-79
2022/01/11 22:42:54;;;;;;;216.63;94.97;;;-5.10;99.90;;;;;;10396425;28;20276;-79
2022/01/11 22:48:17;;;;;;;228.87;98.53;;;-5.10;99.90;;;;;;10397542;28;20374;-79
2022/01/11 22:53:39;;;;;;;225.00;99.03;;;-5.20;99.90;;;;;;10383419;28;20254;-79
2022/01/11 22:59:01;;;;;;;237.00;101.23;;;-5.10;99.90;;;;;;10397031;28;20222;-80
2022/01/11 23:04:22;;;;;;;226.43;103.23;;;-5.10;99.90;;;;;;10396336;28;20488;-79
2022/01/11 23:09:45;;;;;;;263.80;113.13;;;-5.20;99.90;;;;;;10397894;28;20189;-80
2022/01/11 23:15:13;;;;;;;280.13;121.03;;;-5.10;99.90;;;;;;10397357;28;20200;-79
2022/01/11 23:20:39;;;;;;;301.73;130.07;;;-5.00;99.90;;;;;;10382410;28;20260;-79
2022/01/11 23:26:02;;;;;;;280.43;123.03;;;-5.00;99.90;;;;;;10349502;28;20213;-79
2022/01/11 23:31:24;;;;;;;298.43;128.23;;;-4.90;99.90;;;;;;10356144;28;20199;-80
2022/01/11 23:36:52;;;;;;;325.10;136.20;;;-4.90;99.90;;;;;;10380268;28;20199;-79
2022/01/11 23:42:38;;;;;;;345.87;145.73;;;-4.90;99.90;;;;;;10396420;28;20200;-79
2022/01/11 23:48:00;;;;;;;360.50;145.27;;;-4.80;99.90;;;;;;10381259;28;20196;-79
2022/01/11 23:53:23;;;;;;;393.90;157.50;;;-5.00;99.90;;;;;;10395353;28;20529;-80
2022/01/11 23:58:45;;;;;;;382.80;156.67;;;-5.00;99.90;;;;;;10367431;28;20231;-79
